sensor_id;sensor_type;location;lat;lon;timestamp;pressure;altitude;pressure_sealevel;temperature;humidity
9764;BME280;4921;43.214;27.936;2023-07-30T00:02:16;100742.13;;;24.31;100.00
9764;BME280;4921;43.214;27.936;2023-07-30T00:04:44;100745.88;;;24.30;100.00
9764;BME280;4921;43.214;27.936;2023-07-30T00:07:12;100747.34;;;24.26;100.00
9764;BME280;4921;43.214;27.936;2023-07-30T00:09:39;100740.91;;;24.27;100.00
9764;BME280;4921;43.214;27.936;2023-07-30T00:12:07;100728.31;;;24.14;100.00
9764;BME280;4921;43.214;27.936;2023-07-30T00:14:35;100722.31;;;24.12;100.00
9764;BME280;4921;43.214;27.936;2023-07-30T00:17:02;100734.91;;;24.25;100.00
9764;BME280;4921;43.214;27.936;2023-07-30T00:19:29;100739.06;;;24.21;100.00
9764;BME280;4921;43.214;27.936;2023-07-30T00:21:58;100730.38;;;24.19;100.00
9764;BME280;4921;43.214;27.936;2023-07-30T00:24:25;100732.84;;;24.20;100.00
9764;BME280;4921;43.214;27.936;2023-07-30T00:26:52;100732.84;;;24.20;100.00
9764;BME280;4921;43.214;27.936;2023-07-30T00:29:19;100731.00;;;24.21;100.00
9764;BME280;4921;43.214;27.936;2023-07-30T00:31:46;100736.38;;;24.21;100.00
9764;BME280;4921;43.214;27.936;2023-07-30T00:34:13;100732.22;;;24.18;100.00
9764;BME280;4921;43.214;27.936;2023-07-30T00:36:40;100723.34;;;24.18;100.00
9764;BME280;4921;43.214;27.936;2023-07-30T00:39:09;100729.31;;;24.20;100.00
9764;BME280;4921;43.214;27.936;2023-07-30T00:41:37;100732.22;;;24.18;100.00
9764;BME280;4921;43.214;27.936;2023-07-30T00:44:04;100723.75;;;24.15;100.00
9764;BME280;4921;43.214;27.936;2023-07-30T00:46:31;100725.41;;;24.16;100.00
9764;BME280;4921;43.214;27.936;2023-07-30T00:48:58;100723.34;;;24.18;100.00
9764;BME280;4921;43.214;27.936;2023-07-30T00:51:26;100723.53;;;24.16;100.00
9764;BME280;4921;43.214;27.936;2023-07-30T00:53:54;100722.09;;;24.14;100.00
9764;BME280;4921;43.214;27.936;2023-07-30T00:56:23;100721.25;;;24.13;100.00
9764;BME280;4921;43.214;27.936;2023-07-30T00:58:50;100726.63;;;24.13;100.00
9764;BME280;4921;43.214;27.936;2023-07-30T01:01:19;100730.38;;;24.12;100.00
9764;BME280;4921;43.214;27.936;2023-07-30T01:03:46;100730.38;;;24.12;100.00
9764;BME280;4921;43.214;27.936;2023-07-30T01:06:13;100725.00;;;24.12;100.00
9764;BME280;4921;43.214;27.936;2023-07-30T01:08:40;100731.22;;;24.13;100.00
9764;BME280;4921;43.214;27.936;2023-07-30T01:11:08;100728.72;;;24.11;100.00
9764;BME280;4921;43.214;27.936;2023-07-30T01:13:38;100721.69;;;24.10;100.00
9764;BME280;4921;43.214;27.936;2023-07-30T01:16:05;100726.03;;;24.05;100.00
9764;BME280;4921;43.214;27.936;2023-07-30T01:18:33;100727.91;;;24.04;100.00
9764;BME280;4921;43.214;27.936;2023-07-30T01:21:02;100722.53;;;24.04;100.00
9764;BME280;4921;43.214;27.936;2023-07-30T01:23:29;100723.50;;;24.03;100.00
9764;BME280;4921;43.214;27.936;2023-07-30T01:26:02;100720.00;;;24.03;100.00
9764;BME280;4921;43.214;27.936;2023-07-30T01:28:35;100731.56;;;24.03;100.00
9764;BME280;4921;43.214;27.936;2023-07-30T01:31:05;100718.34;;;24.02;100.00
9764;BME280;4921;43.214;27.936;2023-07-30T01:33:33;100718.53;;;24.00;100.00
9764;BME280;4921;43.214;27.936;2023-07-30T01:36:02;100723.91;;;24.00;100.00
9764;BME280;4921;43.214;27.936;2023-07-30T01:38:30;100713.59;;;23.97;100.00
9764;BME280;4921;43.214;27.936;2023-07-30T01:40:57;100721.88;;;23.96;100.00
9764;BME280;4921;43.214;27.936;2023-07-30T01:43:24;100718.13;;;23.97;100.00
9764;BME280;4921;43.214;27.936;2023-07-30T01:45:52;100715.44;;;23.97;100.00
9764;BME280;4921;43.214;27.936;2023-07-30T01:48:18;100712.78;;;23.97;100.00
9764;BME280;4921;43.214;27.936;2023-07-30T01:50:45;100715.66;;;23.95;100.00
9764;BME280;4921;43.214;27.936;2023-07-30T01:53:15;100712.53;;;23.92;100.00
9764;BME280;4921;43.214;27.936;2023-07-30T01:55:42;100713.59;;;23.91;100.00
9764;BME280;4921;43.214;27.936;2023-07-30T01:58:11;100714.44;;;23.91;100.00
9764;BME280;4921;43.214;27.936;2023-07-30T02:00:39;100712.97;;;23.89;100.00
9764;BME280;4921;43.214;27.936;2023-07-30T02:03:06;100712.97;;;23.89;100.00
9764;BME280;4921;43.214;27.936;2023-07-30T02:05:33;100711.94;;;23.90;100.00
9764;BME280;4921;43.214;27.936;2023-07-30T02:08:01;100711.53;;;23.86;100.00
9764;BME280;4921;43.214;27.936;2023-07-30T02:10:29;100715.66;;;23.89;100.00
9764;BME280;4921;43.214;27.936;2023-07-30T02:12:56;100712.97;;;23.89;100.00
9764;BME280;4921;43.214;27.936;2023-07-30T02:15:23;100708.44;;;23.89;100.00
9764;BME280;4921;43.214;27.936;2023-07-30T02:17:50;100711.31;;;23.88;100.00
9764;BME280;4921;43.214;27.936;2023-07-30T02:20:17;100724.13;;;23.86;100.00
9764;BME280;4921;43.214;27.936;2023-07-30T02:22:45;100719.59;;;23.86;100.00
9764;BME280;4921;43.214;27.936;2023-07-30T02:25:12;100708.84;;;23.86;100.00
9764;BME280;4921;43.214;27.936;2023-07-30T02:27:40;100716.91;;;23.86;100.00
9764;BME280;4921;43.214;27.936;2023-07-30T02:30:07;100719.59;;;23.86;100.00
9764;BME280;4921;43.214;27.936;2023-07-30T02:32:34;100717.72;;;23.87;100.00
9764;BME280;4921;43.214;27.936;2023-07-30T02:35:01;100709.84;;;23.85;100.00
9764;BME280;4921;43.214;27.936;2023-07-30T02:37:28;100719.59;;;23.86;100.00
9764;BME280;4921;43.214;27.936;2023-07-30T02:39:55;100711.31;;;23.81;100.00
9764;BME280;4921;43.214;27.936;2023-07-30T02:42:22;100727.88;;;23.85;100.00
9764;BME280;4921;43.214;27.936;2023-07-30T02:44:51;100717.91;;;23.85;100.00
9764;BME280;4921;43.214;27.936;2023-07-30T02:47:18;100726.19;;;23.84;100.00
9764;BME280;4921;43.214;27.936;2023-07-30T02:49:45;100725.34;;;23.83;100.00
9764;BME280;4921;43.214;27.936;2023-07-30T02:52:12;100726.41;;;23.82;100.00
9764;BME280;4921;43.214;27.936;2023-07-30T02:54:39;100728.25;;;23.82;100.00
9764;BME280;4921;43.214;27.936;2023-07-30T02:57:06;100717.50;;;23.82;100.00
9764;BME280;4921;43.214;27.936;2023-07-30T02:59:33;100734.47;;;23.82;100.00
9764;BME280;4921;43.214;27.936;2023-07-30T03:02:03;100723.72;;;23.82;100.00
9764;BME280;4921;43.214;27.936;2023-07-30T03:04:30;100718.56;;;23.74;100.00
9764;BME280;4921;43.214;27.936;2023-07-30T03:06:57;100722.66;;;23.77;100.00
9764;BME280;4921;43.214;27.936;2023-07-30T03:09:24;100729.50;;;23.79;100.00
9764;BME280;4921;43.214;27.936;2023-07-30T03:11:51;100726.19;;;23.77;100.00
9764;BME280;4921;43.214;27.936;2023-07-30T03:14:19;100732.59;;;23.76;100.00
9764;BME280;4921;43.214;27.936;2023-07-30T03:16:46;100730.09;;;23.75;100.00
9764;BME280;4921;43.214;27.936;2023-07-30T03:19:15;100735.06;;;23.71;100.00
9764;BME280;4921;43.214;27.936;2023-07-30T03:21:42;100731.31;;;23.72;100.00
9764;BME280;4921;43.214;27.936;2023-07-30T03:24:09;100718.53;;;23.68;100.00
9764;BME280;4921;43.214;27.936;2023-07-30T03:26:36;100738.38;;;23.73;100.00
9764;BME280;4921;43.214;27.936;2023-07-30T03:29:03;100730.53;;;23.72;100.00
9764;BME280;4921;43.214;27.936;2023-07-30T03:31:30;100736.09;;;23.70;100.00
9764;BME280;4921;43.214;27.936;2023-07-30T03:33:57;100728.84;;;23.71;100.00
9764;BME280;4921;43.214;27.936;2023-07-30T03:36:26;100725.16;;;23.72;100.00
9764;BME280;4921;43.214;27.936;2023-07-30T03:38:52;100737.13;;;23.69;100.00
9764;BME280;4921;43.214;27.936;2023-07-30T03:41:19;100742.28;;;23.71;100.00
9764;BME280;4921;43.214;27.936;2023-07-30T03:43:47;100744.13;;;23.70;100.00
9764;BME280;4921;43.214;27.936;2023-07-30T03:46:14;100741.28;;;23.72;100.00
9764;BME280;4921;43.214;27.936;2023-07-30T03:48:41;100738.59;;;23.72;100.00
9764;BME280;4921;43.214;27.936;2023-07-30T03:51:08;100741.06;;;23.73;100.00
9764;BME280;4921;43.214;27.936;2023-07-30T03:53:37;100742.91;;;23.73;100.00
9764;BME280;4921;43.214;27.936;2023-07-30T03:56:04;100735.69;;;23.73;100.00
9764;BME280;4921;43.214;27.936;2023-07-30T03:58:31;100739.00;;;23.75;100.00
9764;BME280;4921;43.214;27.936;2023-07-30T04:00:58;100737.97;;;23.76;100.00
9764;BME280;4921;43.214;27.936;2023-07-30T04:03:25;100736.94;;;23.77;100.00
9764;BME280;4921;43.214;27.936;2023-07-30T04:05:51;100737.56;;;23.79;100.00
9764;BME280;4921;43.214;27.936;2023-07-30T04:08:17;100734.47;;;23.82;100.00
9764;BME280;4921;43.214;27.936;2023-07-30T04:10:46;100736.72;;;23.85;100.00
9764;BME280;4921;43.214;27.936;2023-07-30T04:13:13;100732.63;;;23.89;100.00
9764;BME280;4921;43.214;27.936;2023-07-30T04:15:40;100732.41;;;23.91;100.00
9764;BME280;4921;43.214;27.936;2023-07-30T04:18:07;100731.56;;;23.97;100.00
9764;BME280;4921;43.214;27.936;2023-07-30T04:20:34;100735.72;;;23.99;100.00
9764;BME280;4921;43.214;27.936;2023-07-30T04:23:01;100740.47;;;24.04;100.00
9764;BME280;4921;43.214;27.936;2023-07-30T04:25:28;100740.91;;;24.07;100.00
9764;BME280;4921;43.214;27.936;2023-07-30T04:27:56;100734.09;;;24.11;100.00
9764;BME280;4921;43.214;27.936;2023-07-30T04:30:23;100724.53;;;24.02;100.00
9764;BME280;4921;43.214;27.936;2023-07-30T04:32:50;100740.06;;;24.20;100.00
9764;BME280;4921;43.214;27.936;2023-07-30T04:35:17;100738.63;;;24.24;100.00
9764;BME280;4921;43.214;27.936;2023-07-30T04:37:44;100748.75;;;24.29;100.00
9764;BME280;4921;43.214;27.936;2023-07-30T04:40:11;100749.19;;;24.32;100.00
9764;BME280;4921;43.214;27.936;2023-07-30T04:42:38;100747.50;;;24.38;100.00
9764;BME280;4921;43.214;27.936;2023-07-30T04:45:07;100747.94;;;24.41;100.00
9764;BME280;4921;43.214;27.936;2023-07-30T04:47:34;100755.56;;;24.44;100.00
9764;BME280;4921;43.214;27.936;2023-07-30T04:50:01;100751.03;;;24.45;100.00
9764;BME280;4921;43.214;27.936;2023-07-30T04:52:28;100753.09;;;24.49;100.00
9764;BME280;4921;43.214;27.936;2023-07-30T04:54:55;100758.47;;;24.56;100.00
9764;BME280;4921;43.214;27.936;2023-07-30T04:57:22;100761.56;;;24.59;100.00
9764;BME280;4921;43.214;27.936;2023-07-30T04:59:49;100750.56;;;24.61;100.00
9764;BME280;4921;43.214;27.936;2023-07-30T05:02:17;100760.69;;;24.72;100.00
9764;BME280;4921;43.214;27.936;2023-07-30T05:04:44;100760.31;;;24.75;100.00
9764;BME280;4921;43.214;27.936;2023-07-30T05:07:11;100761.78;;;24.77;100.00
9764;BME280;4921;43.214;27.936;2023-07-30T05:09:38;100764.63;;;24.82;100.00
9764;BME280;4921;43.214;27.936;2023-07-30T05:12:06;100762.97;;;24.88;100.00
9764;BME280;4921;43.214;27.936;2023-07-30T05:14:33;100765.03;;;24.92;100.00
9764;BME280;4921;43.214;27.936;2023-07-30T05:16:59;100769.56;;;24.98;100.00
9764;BME280;4921;43.214;27.936;2023-07-30T05:19:28;100764.38;;;25.04;100.00
9764;BME280;4921;43.214;27.936;2023-07-30T05:21:55;100772.44;;;25.10;100.00
9764;BME280;4921;43.214;27.936;2023-07-30T05:24:22;100770.75;;;25.16;100.00
9764;BME280;4921;43.214;27.936;2023-07-30T05:26:49;100784.22;;;25.09;100.00
9764;BME280;4921;43.214;27.936;2023-07-30T05:29:16;100768.50;;;25.06;100.00
9764;BME280;4921;43.214;27.936;2023-07-30T05:31:42;100783.03;;;24.98;100.00
9764;BME280;4921;43.214;27.936;2023-07-30T05:34:09;100779.06;;;25.08;100.00
9764;BME280;4921;43.214;27.936;2023-07-30T05:36:38;100787.50;;;25.18;100.00
9764;BME280;4921;43.214;27.936;2023-07-30T05:39:05;100787.34;;;24.99;100.00
9764;BME280;4921;43.214;27.936;2023-07-30T05:41:32;100792.53;;;25.08;100.00
9764;BME280;4921;43.214;27.936;2023-07-30T05:43:59;100793.72;;;25.18;100.00
9764;BME280;4921;43.214;27.936;2023-07-30T05:46:26;100787.72;;;25.23;100.00
9764;BME280;4921;43.214;27.936;2023-07-30T05:48:53;100789.31;;;25.30;100.00
9764;BME280;4921;43.214;27.936;2023-07-30T05:51:20;100784.00;;;25.17;100.00
9764;BME280;4921;43.214;27.936;2023-07-30T05:53:48;100791.94;;;24.92;100.00
9764;BME280;4921;43.214;27.936;2023-07-30T05:56:15;100785.91;;;25.10;100.00
9764;BME280;4921;43.214;27.936;2023-07-30T05:58:44;100789.88;;;24.94;100.00
9764;BME280;4921;43.214;27.936;2023-07-30T06:01:11;100796.91;;;24.63;100.00
9764;BME280;4921;43.214;27.936;2023-07-30T06:03:38;100791.56;;;24.56;100.00
9764;BME280;4921;43.214;27.936;2023-07-30T06:06:05;100797.75;;;24.70;100.00
9764;BME280;4921;43.214;27.936;2023-07-30T06:08:32;100796.13;;;24.75;100.00
9764;BME280;4921;43.214;27.936;2023-07-30T06:11:02;100799.22;;;24.79;100.00
9764;BME280;4921;43.214;27.936;2023-07-30T06:13:29;100804.59;;;24.66;100.00
9764;BME280;4921;43.214;27.936;2023-07-30T06:15:56;100803.34;;;24.55;100.00
9764;BME280;4921;43.214;27.936;2023-07-30T06:18:23;100794.03;;;24.64;100.00
9764;BME280;4921;43.214;27.936;2023-07-30T06:20:50;100799.81;;;24.68;100.00
9764;BME280;4921;43.214;27.936;2023-07-30T06:23:17;100804.38;;;24.61;100.00
9764;BME280;4921;43.214;27.936;2023-07-30T06:25:44;100797.56;;;24.71;100.00
9764;BME280;4921;43.214;27.936;2023-07-30T06:28:13;100802.97;;;24.52;100.00
9764;BME280;4921;43.214;27.936;2023-07-30T06:30:40;100806.44;;;24.59;100.00
9764;BME280;4921;43.214;27.936;2023-07-30T06:33:07;100800.03;;;24.66;100.00
9764;BME280;4921;43.214;27.936;2023-07-30T06:35:34;100804.19;;;24.75;100.00
9764;BME280;4921;43.214;27.936;2023-07-30T06:38:01;100792.56;;;24.88;100.00
9764;BME280;4921;43.214;27.936;2023-07-30T06:40:28;100794.84;;;24.91;100.00
9764;BME280;4921;43.214;27.936;2023-07-30T06:42:55;100794.41;;;25.01;100.00
9764;BME280;4921;43.214;27.936;2023-07-30T06:45:23;100804.97;;;24.89;100.00
9764;BME280;4921;43.214;27.936;2023-07-30T06:47:50;100795.00;;;25.09;100.00
9764;BME280;4921;43.214;27.936;2023-07-30T06:50:17;100797.06;;;25.07;100.00
9764;BME280;4921;43.214;27.936;2023-07-30T06:52:44;100791.38;;;24.77;100.00
9764;BME280;4921;43.214;27.936;2023-07-30T06:55:11;100792.81;;;24.67;100.00
9764;BME280;4921;43.214;27.936;2023-07-30T06:57:38;100783.91;;;24.66;100.00
9764;BME280;4921;43.214;27.936;2023-07-30T07:00:06;100778.09;;;24.76;100.00
9764;BME280;4921;43.214;27.936;2023-07-30T07:02:35;100787.44;;;24.80;100.00
9764;BME280;4921;43.214;27.936;2023-07-30T07:05:02;100789.66;;;24.89;100.00
9764;BME280;4921;43.214;27.936;2023-07-30T07:07:30;100789.66;;;24.89;100.00
9764;BME280;4921;43.214;27.936;2023-07-30T07:09:57;100782.47;;;24.77;100.00
9764;BME280;4921;43.214;27.936;2023-07-30T07:12:24;100786.38;;;24.87;100.00
9764;BME280;4921;43.214;27.936;2023-07-30T07:14:51;100786.56;;;24.92;100.00
9764;BME280;4921;43.214;27.936;2023-07-30T07:17:18;100779.69;;;25.03;100.00
9764;BME280;4921;43.214;27.936;2023-07-30T07:19:46;100788.50;;;25.23;100.00
9764;BME280;4921;43.214;27.936;2023-07-30T07:22:13;100791.69;;;25.14;100.00
9764;BME280;4921;43.214;27.936;2023-07-30T07:24:40;100782.75;;;25.13;100.00
9764;BME280;4921;43.214;27.936;2023-07-30T07:27:07;100791.06;;;25.12;100.00
9764;BME280;4921;43.214;27.936;2023-07-30T07:29:34;100796.09;;;24.95;100.00
9764;BME280;4921;43.214;27.936;2023-07-30T07:32:01;100786.09;;;25.02;100.00
9764;BME280;4921;43.214;27.936;2023-07-30T07:34:28;100785.25;;;25.08;100.00
9764;BME280;4921;43.214;27.936;2023-07-30T07:36:57;100789.81;;;25.14;100.00
9764;BME280;4921;43.214;27.936;2023-07-30T07:39:23;100790.78;;;25.26;100.00
9764;BME280;4921;43.214;27.936;2023-07-30T07:41:50;100795.97;;;25.21;100.00
9764;BME280;4921;43.214;27.936;2023-07-30T07:44:17;100792.53;;;25.08;100.00
9764;BME280;4921;43.214;27.936;2023-07-30T07:46:44;100794.41;;;25.01;100.00
9764;BME280;4921;43.214;27.936;2023-07-30T07:49:11;100787.59;;;24.85;100.00
9764;BME280;4921;43.214;27.936;2023-07-30T07:51:38;100796.13;;;24.75;100.00
9764;BME280;4921;43.214;27.936;2023-07-30T07:54:07;100788.06;;;24.75;100.00
9764;BME280;4921;43.214;27.936;2023-07-30T07:56:34;100782.22;;;24.91;100.00
9764;BME280;4921;43.214;27.936;2023-07-30T07:59:00;100780.97;;;24.94;100.00
9764;BME280;4921;43.214;27.936;2023-07-30T08:01:28;100785.09;;;25.03;100.00
9764;BME280;4921;43.214;27.936;2023-07-30T08:03:55;100784.41;;;25.21;100.00
9764;BME280;4921;43.214;27.936;2023-07-30T08:06:22;100770.69;;;25.29;100.00
9764;BME280;4921;43.214;27.936;2023-07-30T08:08:49;100779.41;;;25.24;100.00
9764;BME280;4921;43.214;27.936;2023-07-30T08:11:17;100774.00;;;25.31;100.00
9764;BME280;4921;43.214;27.936;2023-07-30T08:13:44;100780.22;;;25.31;100.00
9764;BME280;4921;43.214;27.936;2023-07-30T08:16:12;100772.69;;;25.53;100.00
9764;BME280;4921;43.214;27.936;2023-07-30T08:18:39;100776.81;;;25.55;100.00
9764;BME280;4921;43.214;27.936;2023-07-30T08:21:06;100782.06;;;25.44;100.00
9764;BME280;4921;43.214;27.936;2023-07-30T08:23:33;100773.13;;;25.43;100.00
9764;BME280;4921;43.214;27.936;2023-07-30T08:26:00;100774.59;;;25.33;100.00
9764;BME280;4921;43.214;27.936;2023-07-30T08:28:28;100773.34;;;25.35;100.00
9764;BME280;4921;43.214;27.936;2023-07-30T08:30:59;100766.50;;;25.46;100.00
9764;BME280;4921;43.214;27.936;2023-07-30T08:33:27;100782.47;;;25.34;100.00
9764;BME280;4921;43.214;27.936;2023-07-30T08:35:55;100777.34;;;25.20;100.00
9764;BME280;4921;43.214;27.936;2023-07-30T08:38:22;100775.75;;;25.12;100.00
9764;BME280;4921;43.214;27.936;2023-07-30T08:40:49;100774.84;;;25.25;100.00
9764;BME280;4921;43.214;27.936;2023-07-30T08:43:18;100769.81;;;25.48;100.00
9764;BME280;4921;43.214;27.936;2023-07-30T08:45:46;100767.88;;;25.61;100.00
9764;BME280;4921;43.214;27.936;2023-07-30T08:48:13;100770.50;;;25.24;100.00
9764;BME280;4921;43.214;27.936;2023-07-30T08:50:41;100782.50;;;25.28;100.00
9764;BME280;4921;43.214;27.936;2023-07-30T08:53:10;100774.59;;;25.39;100.00
9764;BME280;4921;43.214;27.936;2023-07-30T08:55:39;100776.88;;;25.42;100.00
9764;BME280;4921;43.214;27.936;2023-07-30T08:58:07;100782.28;;;25.36;100.00
9764;BME280;4921;43.214;27.936;2023-07-30T09:00:37;100775.81;;;25.50;100.00
9764;BME280;4921;43.214;27.936;2023-07-30T09:03:07;100777.06;;;25.41;100.00
9764;BME280;4921;43.214;27.936;2023-07-30T09:05:35;100774.25;;;25.67;100.00
9764;BME280;4921;43.214;27.936;2023-07-30T09:08:06;100766.75;;;25.76;100.00
9764;BME280;4921;43.214;27.936;2023-07-30T09:10:33;100761.97;;;25.78;100.00
9764;BME280;4921;43.214;27.936;2023-07-30T09:13:02;100764.47;;;25.79;100.00
9764;BME280;4921;43.214;27.936;2023-07-30T09:15:30;100758.38;;;25.84;100.00
9764;BME280;4921;43.214;27.936;2023-07-30T09:17:58;100752.09;;;25.65;100.00
9764;BME280;4921;43.214;27.936;2023-07-30T09:20:27;100749.16;;;25.66;100.00
9764;BME280;4921;43.214;27.936;2023-07-30T09:22:56;100750.22;;;25.65;100.00
9764;BME280;4921;43.214;27.936;2023-07-30T09:25:23;100747.22;;;25.80;100.00
9764;BME280;4921;43.214;27.936;2023-07-30T09:27:50;100744.50;;;25.55;100.00
9764;BME280;4921;43.214;27.936;2023-07-30T09:30:22;100737.94;;;25.76;100.00
9764;BME280;4921;43.214;27.936;2023-07-30T09:32:51;100745.53;;;25.86;100.00
9764;BME280;4921;43.214;27.936;2023-07-30T09:35:19;100745.81;;;26.02;100.00
9764;BME280;4921;43.214;27.936;2023-07-30T09:37:47;100744.16;;;26.01;100.00
9764;BME280;4921;43.214;27.936;2023-07-30T09:40:16;100739.19;;;26.05;100.00
9764;BME280;4921;43.214;27.936;2023-07-30T09:42:45;100737.56;;;25.97;100.00
9764;BME280;4921;43.214;27.936;2023-07-30T09:45:20;100745.38;;;26.05;100.00
9764;BME280;4921;43.214;27.936;2023-07-30T09:47:47;100746.50;;;26.22;100.00
9764;BME280;4921;43.214;27.936;2023-07-30T09:50:15;100738.72;;;26.08;100.00
9764;BME280;4921;43.214;27.936;2023-07-30T09:52:42;100739.19;;;26.05;100.00
9764;BME280;4921;43.214;27.936;2023-07-30T09:55:11;100747.31;;;26.23;100.00
9764;BME280;4921;43.214;27.936;2023-07-30T09:57:38;100742.94;;;26.28;100.00
9764;BME280;4921;43.214;27.936;2023-07-30T10:00:07;100731.31;;;26.28;100.00
9764;BME280;4921;43.214;27.936;2023-07-30T10:02:38;100736.13;;;26.26;100.00
9764;BME280;4921;43.214;27.936;2023-07-30T10:05:10;100735.53;;;26.42;100.00
9764;BME280;4921;43.214;27.936;2023-07-30T10:07:38;100736.13;;;26.44;100.00
9764;BME280;4921;43.214;27.936;2023-07-30T10:10:09;100737.38;;;26.66;100.00
9764;BME280;4921;43.214;27.936;2023-07-30T10:12:38;100737.63;;;26.83;100.00
9764;BME280;4921;43.214;27.936;2023-07-30T10:15:07;100727.56;;;26.90;100.00
9764;BME280;4921;43.214;27.936;2023-07-30T10:17:34;100723.19;;;27.25;100.00
9764;BME280;4921;43.214;27.936;2023-07-30T10:20:21;100730.25;;;27.44;100.00
9764;BME280;4921;43.214;27.936;2023-07-30T10:22:51;100729.41;;;27.44;100.00
9764;BME280;4921;43.214;27.936;2023-07-30T10:25:21;100727.50;;;27.14;100.00
9764;BME280;4921;43.214;27.936;2023-07-30T10:27:51;100718.59;;;26.78;100.00
9764;BME280;4921;43.214;27.936;2023-07-30T10:30:20;100729.53;;;26.83;100.00
9764;BME280;4921;43.214;27.936;2023-07-30T10:32:59;100728.41;;;26.90;100.00
9764;BME280;4921;43.214;27.936;2023-07-30T10:35:39;100721.72;;;26.57;100.00
9764;BME280;4921;43.214;27.936;2023-07-30T10:38:17;100719.56;;;26.83;100.00
9764;BME280;4921;43.214;27.936;2023-07-30T10:41:03;100728.69;;;27.00;100.00
9764;BME280;4921;43.214;27.936;2023-07-30T10:43:34;100718.00;;;26.76;100.00
9764;BME280;4921;43.214;27.936;2023-07-30T10:46:02;100720.22;;;26.61;100.00
9764;BME280;4921;43.214;27.936;2023-07-30T10:48:33;100722.00;;;26.67;100.00
9764;BME280;4921;43.214;27.936;2023-07-30T10:51:01;100723.50;;;26.63;100.00
9764;BME280;4921;43.214;27.936;2023-07-30T10:53:28;100715.66;;;26.61;100.00
9764;BME280;4921;43.214;27.936;2023-07-30T10:55:57;100720.16;;;27.03;100.00
9764;BME280;4921;43.214;27.936;2023-07-30T10:58:26;100724.53;;;26.86;100.00
9764;BME280;4921;43.214;27.936;2023-07-30T11:00:54;100722.56;;;26.93;100.00
9764;BME280;4921;43.214;27.936;2023-07-30T11:03:24;100721.00;;;27.04;100.00
9764;BME280;4921;43.214;27.936;2023-07-30T11:05:52;100724.38;;;26.99;100.00
9764;BME280;4921;43.214;27.936;2023-07-30T11:08:21;100717.72;;;27.13;100.00
9764;BME280;4921;43.214;27.936;2023-07-30T11:10:48;100709.78;;;27.00;100.00
9764;BME280;4921;43.214;27.936;2023-07-30T11:13:15;100715.41;;;26.63;100.00
9764;BME280;4921;43.214;27.936;2023-07-30T11:15:42;100712.84;;;26.68;100.00
9764;BME280;4921;43.214;27.936;2023-07-30T11:18:12;100708.75;;;26.65;100.00
9764;BME280;4921;43.214;27.936;2023-07-30T11:20:39;100713.63;;;26.57;100.00
9764;BME280;4921;43.214;27.936;2023-07-30T11:23:20;100704.59;;;26.44;100.00
9764;BME280;4921;43.214;27.936;2023-07-30T11:25:48;100704.75;;;26.50;100.00
9764;BME280;4921;43.214;27.936;2023-07-30T11:28:27;100711.91;;;26.37;100.00
9764;BME280;4921;43.214;27.936;2023-07-30T11:30:57;100694.34;;;26.35;100.00
9764;BME280;4921;43.214;27.936;2023-07-30T11:33:26;100696.81;;;26.36;100.00
9764;BME280;4921;43.214;27.936;2023-07-30T11:35:54;100699.78;;;26.28;100.00
9764;BME280;4921;43.214;27.936;2023-07-30T11:38:22;100698.28;;;26.08;100.00
9764;BME280;4921;43.214;27.936;2023-07-30T11:40:50;100693.47;;;26.16;100.00
9764;BME280;4921;43.214;27.936;2023-07-30T11:43:17;100700.84;;;26.03;100.00
9764;BME280;4921;43.214;27.936;2023-07-30T11:45:44;100692.56;;;25.98;100.00
9764;BME280;4921;43.214;27.936;2023-07-30T11:48:11;100688.13;;;25.85;100.00
9764;BME280;4921;43.214;27.936;2023-07-30T11:50:50;100679.94;;;25.67;100.00
9764;BME280;4921;43.214;27.936;2023-07-30T11:53:18;100690.34;;;25.63;100.00
9764;BME280;4921;43.214;27.936;2023-07-30T11:55:45;100691.84;;;25.59;100.00
9764;BME280;4921;43.214;27.936;2023-07-30T11:58:13;100691.28;;;25.51;100.00
9764;BME280;4921;43.214;27.936;2023-07-30T12:00:41;100688.78;;;25.49;100.00
9764;BME280;4921;43.214;27.936;2023-07-30T12:03:11;100692.97;;;25.39;100.00
9764;BME280;4921;43.214;27.936;2023-07-30T12:05:38;100688.44;;;25.33;100.00
9764;BME280;4921;43.214;27.936;2023-07-30T12:08:16;100689.03;;;25.35;100.00
9764;BME280;4921;43.214;27.936;2023-07-30T12:10:45;100679.09;;;25.42;100.00
9764;BME280;4921;43.214;27.936;2023-07-30T12:13:15;100682.78;;;25.47;100.00
9764;BME280;4921;43.214;27.936;2023-07-30T12:15:44;100679.66;;;25.50;100.00
9764;BME280;4921;43.214;27.936;2023-07-30T12:18:11;100680.84;;;25.61;100.00
9764;BME280;4921;43.214;27.936;2023-07-30T12:20:38;100675.06;;;25.57;100.00
9764;BME280;4921;43.214;27.936;2023-07-30T12:23:06;100681.16;;;25.46;100.00
9764;BME280;4921;43.214;27.936;2023-07-30T12:25:33;100663.78;;;25.42;100.00
9764;BME280;4921;43.214;27.936;2023-07-30T12:28:01;100661.50;;;25.33;100.00
9764;BME280;4921;43.214;27.936;2023-07-30T12:30:28;100668.34;;;25.35;100.00
9764;BME280;4921;43.214;27.936;2023-07-30T12:32:55;100656.56;;;25.30;100.00
9764;BME280;4921;43.214;27.936;2023-07-30T12:35:23;100658.56;;;25.41;100.00
9764;BME280;4921;43.214;27.936;2023-07-30T12:37:50;100653.16;;;25.47;100.00
9764;BME280;4921;43.214;27.936;2023-07-30T12:40:19;100647.56;;;25.49;100.00
9764;BME280;4921;43.214;27.936;2023-07-30T12:42:46;100649.72;;;25.34;100.00
9764;BME280;4921;43.214;27.936;2023-07-30T12:45:13;100636.53;;;25.19;100.00
9764;BME280;4921;43.214;27.936;2023-07-30T12:47:40;100646.56;;;25.37;100.00
9764;BME280;4921;43.214;27.936;2023-07-30T12:50:08;100645.44;;;25.57;100.00
9764;BME280;4921;43.214;27.936;2023-07-30T12:52:35;100642.50;;;25.59;100.00
9764;BME280;4921;43.214;27.936;2023-07-30T12:55:02;100634.94;;;25.74;100.00